Time;durP1;ratioP1;P1;durP2;ratioP2;P2;SDS_P1;SDS_P2;PMS_P1;PMS_P2;Temp;Humidity;BMP_temperature;BMP_pressure;BME280_temperature;BME280_humidity;BME280_pressure;Samples;Min_cycle;Max_cycle;Signal;HPM_P1;HPM_P2
2022/11/24 00:00:25;;;;;;;31.15;12.35;;;;;;;;;;5001393;28;20034;-79
2022/11/24 00:02:51;;;;;;;27.02;12.15;;;;;;;;;;4999915;28;20026;-80
2022/11/24 00:05:16;;;;;;;28.90;11.55;;;;;;;;;;4982345;28;20034;-79
2022/11/24 00:07:41;;;;;;;26.02;12.05;;;;;;;;;;4999531;28;20030;-80
2022/11/24 00:10:07;;;;;;;29.95;11.88;;;;;;;;;;4982351;28;20077;-79
2022/11/24 00:12:32;;;;;;;27.65;11.63;;;;;;;;;;4983253;28;20372;-81
2022/11/24 00:14:57;;;;;;;27.60;10.77;;;;;;;;;;4982673;28;20488;-79
2022/11/24 00:17:23;;;;;;;24.85;11.32;;;;;;;;;;4999967;28;20038;-80
2022/11/24 00:19:48;;;;;;;27.20;11.52;;;;;;;;;;5000415;28;20391;-79
2022/11/24 00:22:13;;;;;;;26.50;10.73;;;;;;;;;;4983261;28;20038;-79
2022/11/24 00:24:39;;;;;;;25.23;11.25;;;;;;;;;;4999975;28;20018;-80
2022/11/24 00:27:04;;;;;;;25.33;10.93;;;;;;;;;;5000346;28;20035;-80
2022/11/24 00:29:29;;;;;;;25.15;10.60;;;;;;;;;;5001000;28;20503;-78
2022/11/24 00:31:55;;;;;;;28.27;11.13;;;;;;;;;;5000287;28;20026;-79
2022/11/24 00:34:21;;;;;;;24.25;11.10;;;;;;;;;;4998715;28;20030;-79
2022/11/24 00:36:46;;;;;;;30.65;11.15;;;;;;;;;;4998366;28;20415;-77
2022/11/24 00:39:13;;;;;;;22.05;10.05;;;;;;;;;;4998826;28;20037;-78
2022/11/24 00:41:39;;;;;;;21.90;10.52;;;;;;;;;;4980730;28;20080;-79
2022/11/24 00:44:05;;;;;;;23.98;10.40;;;;;;;;;;4980598;28;20117;-78
2022/11/24 00:46:30;;;;;;;23.88;10.13;;;;;;;;;;4997053;28;20022;-79
2022/11/24 00:48:56;;;;;;;21.88;9.80;;;;;;;;;;4981480;28;20038;-79
2022/11/24 00:51:25;;;;;;;24.20;10.82;;;;;;;;;;5001316;28;20030;-79
2022/11/24 00:53:52;;;;;;;24.35;10.80;;;;;;;;;;5000822;28;20030;-79
2022/11/24 00:56:17;;;;;;;27.08;11.23;;;;;;;;;;4999081;28;20038;-79
2022/11/24 00:58:42;;;;;;;22.45;9.38;;;;;;;;;;4981145;28;20430;-79
2022/11/24 01:01:14;;;;;;;22.58;10.93;;;;;;;;;;4999509;28;20022;-78
2022/11/24 01:03:41;;;;;;;22.92;10.07;;;;;;;;;;4980781;28;20040;-77
2022/11/24 01:06:09;;;;;;;21.77;9.82;;;;;;;;;;4982265;28;20030;-79
2022/11/24 01:08:36;;;;;;;23.63;9.75;;;;;;;;;;4997101;28;20153;-78
2022/11/24 01:11:23;;;;;;;21.85;9.70;;;;;;;;;;4979618;28;20427;-79
2022/11/24 01:13:52;;;;;;;17.70;8.73;;;;;;;;;;4997758;28;20041;-78
2022/11/24 01:16:19;;;;;;;21.45;8.98;;;;;;;;;;4998225;28;20029;-79
2022/11/24 01:18:45;;;;;;;21.20;9.63;;;;;;;;;;4997464;28;20109;-80
2022/11/24 01:21:11;;;;;;;22.38;9.95;;;;;;;;;;4980500;28;20022;-79
2022/11/24 01:23:36;;;;;;;24.17;9.68;;;;;;;;;;4980651;28;20026;-78
2022/11/24 01:26:13;;;;;;;24.48;9.70;;;;;;;;;;4997805;28;20447;-78
2022/11/24 01:28:39;;;;;;;18.83;8.35;;;;;;;;;;4998195;28;20026;-79
2022/11/24 01:31:05;;;;;;;23.65;9.77;;;;;;;;;;4998648;28;20076;-80
2022/11/24 01:33:32;;;;;;;17.73;8.55;;;;;;;;;;4997764;28;20480;-80
2022/11/24 01:35:58;;;;;;;20.20;9.48;;;;;;;;;;4999318;28;20018;-79
2022/11/24 01:38:24;;;;;;;23.85;8.93;;;;;;;;;;4983950;28;20508;-80
2022/11/24 01:40:59;;;;;;;18.52;8.50;;;;;;;;;;4985472;28;20061;-79
2022/11/24 01:43:24;;;;;;;18.95;8.50;;;;;;;;;;5005495;28;20085;-80
2022/11/24 01:45:50;;;;;;;17.02;8.00;;;;;;;;;;5004376;28;20022;-79
2022/11/24 01:48:28;;;;;;;25.95;9.57;;;;;;;;;;5003579;28;20030;-78
2022/11/24 01:51:09;;;;;;;20.42;8.27;;;;;;;;;;5002361;28;20431;-79
2022/11/24 01:53:35;;;;;;;19.48;7.43;;;;;;;;;;5003330;28;20563;-78
2022/11/24 01:56:01;;;;;;;19.23;7.65;;;;;;;;;;5002251;28;20372;-78
2022/11/24 01:58:31;;;;;;;15.70;7.93;;;;;;;;;;5003272;28;20102;-78
2022/11/24 02:00:56;;;;;;;16.75;8.35;;;;;;;;;;5003137;28;20113;-78
2022/11/24 02:03:27;;;;;;;18.05;8.77;;;;;;;;;;4985390;28;20049;-78
2022/11/24 02:06:00;;;;;;;15.27;7.80;;;;;;;;;;5002633;28;20459;-78
2022/11/24 02:08:35;;;;;;;19.55;8.05;;;;;;;;;;5001651;28;20533;-77
2022/11/24 02:11:03;;;;;;;20.30;8.40;;;;;;;;;;5000790;28;20396;-79
2022/11/24 02:13:29;;;;;;;17.23;8.05;;;;;;;;;;5001400;28;20483;-78
2022/11/24 02:15:54;;;;;;;16.65;8.40;;;;;;;;;;4999945;28;20049;-79
2022/11/24 02:18:20;;;;;;;15.95;8.13;;;;;;;;;;5000433;28;20026;-79
2022/11/24 02:20:45;;;;;;;16.40;7.30;;;;;;;;;;4982131;28;20045;-80
2022/11/24 02:23:26;;;;;;;19.52;7.65;;;;;;;;;;4999596;28;20031;-79
2022/11/24 02:26:13;;;;;;;18.33;7.57;;;;;;;;;;4999613;28;20030;-81
2022/11/24 02:28:39;;;;;;;21.63;7.13;;;;;;;;;;4982325;28;20022;-81
2022/11/24 02:31:04;;;;;;;20.02;7.32;;;;;;;;;;5000655;28;20026;-81
2022/11/24 02:33:30;;;;;;;21.65;7.70;;;;;;;;;;5001260;28;20108;-80
2022/11/24 02:35:55;;;;;;;16.98;7.65;;;;;;;;;;4983413;28;20026;-79
2022/11/24 02:38:34;;;;;;;15.55;7.57;;;;;;;;;;5001335;28;20058;-79
2022/11/24 02:41:04;;;;;;;16.33;7.60;;;;;;;;;;4985672;28;20034;-78
2022/11/24 02:43:35;;;;;;;13.88;6.47;;;;;;;;;;5005860;28;20042;-78
2022/11/24 02:46:00;;;;;;;16.70;6.78;;;;;;;;;;4988070;28;20026;-78
2022/11/24 02:48:27;;;;;;;17.33;8.32;;;;;;;;;;5005250;28;20026;-79
2022/11/24 02:50:52;;;;;;;19.48;8.25;;;;;;;;;;4987999;28;20034;-78
2022/11/24 02:53:17;;;;;;;17.13;7.10;;;;;;;;;;5003797;28;20022;-79
2022/11/24 02:55:42;;;;;;;15.05;7.63;;;;;;;;;;5004390;28;20022;-79
2022/11/24 02:58:08;;;;;;;20.80;8.18;;;;;;;;;;5005315;28;20049;-78
2022/11/24 03:00:33;;;;;;;16.73;7.40;;;;;;;;;;4987210;28;20044;-79
2022/11/24 03:02:58;;;;;;;18.08;8.13;;;;;;;;;;5004862;28;20030;-77
2022/11/24 03:05:23;;;;;;;15.80;7.35;;;;;;;;;;5005168;28;20081;-79
2022/11/24 03:07:49;;;;;;;16.40;7.30;;;;;;;;;;5005555;28;20033;-79
2022/11/24 03:10:15;;;;;;;16.30;7.75;;;;;;;;;;5004226;28;20472;-79
2022/11/24 03:12:40;;;;;;;16.23;7.68;;;;;;;;;;5004754;28;20027;-79
2022/11/24 03:15:06;;;;;;;14.50;7.05;;;;;;;;;;5004301;28;20046;-79
2022/11/24 03:17:31;;;;;;;18.00;8.15;;;;;;;;;;4985390;28;20030;-78
2022/11/24 03:19:56;;;;;;;19.17;7.13;;;;;;;;;;5003373;28;20472;-79
2022/11/24 03:22:21;;;;;;;16.65;7.55;;;;;;;;;;4985765;28;20057;-79
2022/11/24 03:24:47;;;;;;;14.25;6.60;;;;;;;;;;5003016;28;20037;-78
2022/11/24 03:27:12;;;;;;;17.48;6.93;;;;;;;;;;4986192;28;20497;-79
2022/11/24 03:29:37;;;;;;;15.13;7.38;;;;;;;;;;5003571;28;20030;-79
2022/11/24 03:32:03;;;;;;;13.95;6.55;;;;;;;;;;4986121;28;20049;-80
2022/11/24 03:34:28;;;;;;;14.35;6.57;;;;;;;;;;5003057;28;20029;-80
2022/11/24 03:36:53;;;;;;;14.82;7.13;;;;;;;;;;5003743;28;20031;-79
2022/11/24 03:39:19;;;;;;;16.58;7.60;;;;;;;;;;5005137;28;20034;-78
2022/11/24 03:41:44;;;;;;;17.20;7.38;;;;;;;;;;5005971;28;20022;-79
2022/11/24 03:44:09;;;;;;;16.52;7.85;;;;;;;;;;4987220;28;20476;-79
2022/11/24 03:46:34;;;;;;;15.48;7.07;;;;;;;;;;5005152;28;20027;-79
2022/11/24 03:49:00;;;;;;;16.45;7.38;;;;;;;;;;4987413;28;20022;-79
2022/11/24 03:51:25;;;;;;;19.80;7.75;;;;;;;;;;5004793;28;20018;-79
2022/11/24 03:53:50;;;;;;;16.50;6.82;;;;;;;;;;5005378;28;20475;-79
2022/11/24 03:56:16;;;;;;;18.83;7.68;;;;;;;;;;5005073;28;20025;-79
2022/11/24 03:58:41;;;;;;;18.60;8.48;;;;;;;;;;5004567;28;20497;-78
2022/11/24 04:01:06;;;;;;;18.90;8.35;;;;;;;;;;4986549;28;20455;-79
2022/11/24 04:03:31;;;;;;;18.80;7.72;;;;;;;;;;5004276;28;20031;-79
2022/11/24 04:05:57;;;;;;;21.58;7.88;;;;;;;;;;4986748;28;20026;-80
2022/11/24 04:08:22;;;;;;;22.40;9.10;;;;;;;;;;5005202;28;20030;-80
2022/11/24 04:10:52;;;;;;;18.45;8.57;;;;;;;;;;5003834;28;20557;-80
2022/11/24 04:13:20;;;;;;;20.45;8.13;;;;;;;;;;5004209;28;20037;-79
2022/11/24 04:15:46;;;;;;;19.92;8.43;;;;;;;;;;5004964;28;20483;-80
2022/11/24 04:18:12;;;;;;;21.42;9.20;;;;;;;;;;4986735;28;20068;-79
2022/11/24 04:20:39;;;;;;;25.17;8.57;;;;;;;;;;4987732;28;20545;-79
2022/11/24 04:23:05;;;;;;;23.15;9.40;;;;;;;;;;5004398;28;20042;-79
2022/11/24 04:25:30;;;;;;;22.45;8.90;;;;;;;;;;5004832;28;20046;-79
2022/11/24 04:27:56;;;;;;;21.08;8.95;;;;;;;;;;5005832;28;20026;-79
2022/11/24 04:30:23;;;;;;;20.17;9.20;;;;;;;;;;5005045;28;20105;-80
2022/11/24 04:32:49;;;;;;;21.70;8.88;;;;;;;;;;4986850;28;20113;-79
2022/11/24 04:35:14;;;;;;;20.40;8.32;;;;;;;;;;5004373;28;20507;-79
2022/11/24 04:37:40;;;;;;;19.80;8.13;;;;;;;;;;5003982;28;20033;-78
2022/11/24 04:40:07;;;;;;;24.70;9.55;;;;;;;;;;5003087;28;20030;-78
2022/11/24 04:42:33;;;;;;;22.42;8.05;;;;;;;;;;5003992;28;20023;-78
2022/11/24 04:44:58;;;;;;;25.00;9.20;;;;;;;;;;5002782;28;20391;-78
2022/11/24 04:47:25;;;;;;;24.17;8.38;;;;;;;;;;4984909;28;20053;-79
2022/11/24 04:49:51;;;;;;;20.67;8.23;;;;;;;;;;5001099;28;20106;-79
2022/11/24 04:52:18;;;;;;;24.42;9.20;;;;;;;;;;5002827;28;20026;-78
2022/11/24 04:54:43;;;;;;;24.58;8.75;;;;;;;;;;4984473;28;20077;-79
2022/11/24 04:57:20;;;;;;;20.55;8.80;;;;;;;;;;5002676;28;20023;-79
2022/11/24 04:59:46;;;;;;;21.40;9.10;;;;;;;;;;5002523;28;20383;-79
2022/11/24 05:02:11;;;;;;;23.98;8.90;;;;;;;;;;5003117;28;20029;-78
2022/11/24 05:04:37;;;;;;;20.08;8.45;;;;;;;;;;5002762;28;20545;-80
2022/11/24 05:07:03;;;;;;;24.50;9.00;;;;;;;;;;5003683;28;20026;-79
2022/11/24 05:09:28;;;;;;;22.83;8.65;;;;;;;;;;5002953;28;20511;-79
2022/11/24 05:11:53;;;;;;;19.45;9.02;;;;;;;;;;4984713;28;20038;-78
2022/11/24 05:14:19;;;;;;;20.30;9.23;;;;;;;;;;5002239;28;20026;-78
2022/11/24 05:16:44;;;;;;;20.17;8.07;;;;;;;;;;5001490;28;20030;-80
2022/11/24 05:19:10;;;;;;;20.63;8.50;;;;;;;;;;5001416;28;20034;-79
2022/11/24 05:21:35;;;;;;;22.00;9.15;;;;;;;;;;5001731;28;20022;-78
2022/11/24 05:24:00;;;;;;;19.85;8.73;;;;;;;;;;5001331;28;20105;-79
2022/11/24 05:26:26;;;;;;;21.02;8.98;;;;;;;;;;5002124;28;20050;-79
2022/11/24 05:28:51;;;;;;;17.90;8.25;;;;;;;;;;4985630;28;20034;-78
2022/11/24 05:31:16;;;;;;;19.20;8.63;;;;;;;;;;4984987;28;20464;-78
2022/11/24 05:33:42;;;;;;;22.98;7.93;;;;;;;;;;5001371;28;20018;-78
2022/11/24 05:36:51;;;;;;;20.10;8.68;;;;;;;;;;5001240;28;20491;-79
2022/11/24 05:38:53;;;;;;;22.83;8.80;;;;;;;;;;5000567;28;20034;-78
2022/11/24 05:41:18;;;;;;;20.65;8.95;;;;;;;;;;5000227;28;20028;-78
2022/11/24 05:43:43;;;;;;;20.10;8.80;;;;;;;;;;4983566;28;20037;-79
2022/11/24 05:46:09;;;;;;;26.00;9.13;;;;;;;;;;5002045;28;20022;-79
2022/11/24 05:48:34;;;;;;;28.10;9.95;;;;;;;;;;5002024;28;20355;-78
2022/11/24 05:50:59;;;;;;;20.40;8.68;;;;;;;;;;5002460;28;20041;-79
2022/11/24 05:53:25;;;;;;;19.48;9.13;;;;;;;;;;5001578;28;20065;-78
2022/11/24 05:55:51;;;;;;;21.98;9.45;;;;;;;;;;4983578;28;20029;-78
2022/11/24 05:58:16;;;;;;;23.02;8.48;;;;;;;;;;5000098;28;20018;-79
2022/11/24 06:00:42;;;;;;;22.35;9.05;;;;;;;;;;5001705;28;20026;-78
2022/11/24 06:03:08;;;;;;;20.85;9.63;;;;;;;;;;5001543;28;20383;-79
2022/11/24 06:05:33;;;;;;;22.25;10.25;;;;;;;;;;5001598;28;20026;-78
2022/11/24 06:07:59;;;;;;;25.48;10.57;;;;;;;;;;4983584;28;20368;-79
2022/11/24 06:10:25;;;;;;;25.25;10.40;;;;;;;;;;5001527;28;20061;-79
2022/11/24 06:12:51;;;;;;;27.33;10.70;;;;;;;;;;5002345;28;20057;-79
2022/11/24 06:15:16;;;;;;;24.90;10.80;;;;;;;;;;5003874;28;20037;-78
2022/11/24 06:17:42;;;;;;;26.15;10.73;;;;;;;;;;5006218;28;20114;-79
2022/11/24 06:20:09;;;;;;;21.40;9.70;;;;;;;;;;5005746;28;20085;-79
2022/11/24 06:22:34;;;;;;;21.73;9.30;;;;;;;;;;4987826;28;20030;-78
2022/11/24 06:24:59;;;;;;;24.70;10.55;;;;;;;;;;5006665;28;20102;-78
2022/11/24 06:27:25;;;;;;;20.92;8.75;;;;;;;;;;5005126;28;20054;-78
2022/11/24 06:29:50;;;;;;;22.58;9.18;;;;;;;;;;4988944;28;20081;-78
2022/11/24 06:32:16;;;;;;;24.45;9.48;;;;;;;;;;5004896;28;20030;-78
2022/11/24 06:34:41;;;;;;;19.38;8.93;;;;;;;;;;5003936;28;20068;-79
2022/11/24 06:37:07;;;;;;;23.98;10.15;;;;;;;;;;5005486;28;20026;-80
2022/11/24 06:39:32;;;;;;;16.77;7.90;;;;;;;;;;5004659;28;20189;-79
2022/11/24 06:41:58;;;;;;;23.38;9.35;;;;;;;;;;4987476;28;20541;-79
2022/11/24 06:44:23;;;;;;;26.50;9.38;;;;;;;;;;5003877;28;20030;-77
2022/11/24 06:46:48;;;;;;;25.90;11.40;;;;;;;;;;5003673;28;20078;-78
2022/11/24 06:49:17;;;;;;;22.15;9.30;;;;;;;;;;5002704;28;20069;-79
2022/11/24 06:51:51;;;;;;;21.90;9.23;;;;;;;;;;4986939;28;20022;-79
2022/11/24 06:54:18;;;;;;;20.00;8.65;;;;;;;;;;5006084;28;20053;-78
2022/11/24 06:56:44;;;;;;;24.45;10.52;;;;;;;;;;5005013;28;20053;-79
2022/11/24 06:59:15;;;;;;;20.30;9.65;;;;;;;;;;4987000;28;20029;-78
2022/11/24 07:01:40;;;;;;;21.42;9.10;;;;;;;;;;4987833;28;20380;-79
2022/11/24 07:04:05;;;;;;;22.60;9.35;;;;;;;;;;4987153;28;20061;-78
2022/11/24 07:06:31;;;;;;;20.25;9.68;;;;;;;;;;5005601;28;20396;-79
2022/11/24 07:08:56;;;;;;;22.50;9.65;;;;;;;;;;5006996;28;20057;-78
2022/11/24 07:11:23;;;;;;;24.33;9.38;;;;;;;;;;5006177;28;20090;-79
2022/11/24 07:13:50;;;;;;;22.38;9.55;;;;;;;;;;5006426;28;20022;-79
2022/11/24 07:16:22;;;;;;;22.85;10.10;;;;;;;;;;4989680;28;20030;-79
2022/11/24 07:18:53;;;;;;;25.98;9.85;;;;;;;;;;5005635;28;20497;-78
2022/11/24 07:21:19;;;;;;;22.50;9.95;;;;;;;;;;4987064;28;20022;-79
2022/11/24 07:23:48;;;;;;;21.92;9.20;;;;;;;;;;5005551;28;20109;-79
2022/11/24 07:26:14;;;;;;;27.73;9.75;;;;;;;;;;4986203;28;20029;-77
2022/11/24 07:28:39;;;;;;;29.33;10.57;;;;;;;;;;5004485;28;20144;-78
2022/11/24 07:31:09;;;;;;;24.90;11.13;;;;;;;;;;5004444;28;20033;-79
2022/11/24 07:33:34;;;;;;;28.90;10.50;;;;;;;;;;5004966;28;20430;-79
2022/11/24 07:36:00;;;;;;;28.58;10.52;;;;;;;;;;5003118;28;20014;-78
2022/11/24 07:38:28;;;;;;;25.85;11.82;;;;;;;;;;5003328;28;20056;-78
2022/11/24 07:40:53;;;;;;;20.02;9.73;;;;;;;;;;5003954;28;20026;-77
2022/11/24 07:43:18;;;;;;;21.90;10.02;;;;;;;;;;5004861;28;20152;-78
2022/11/24 07:45:50;;;;;;;23.17;9.52;;;;;;;;;;5005306;28;20030;-78
2022/11/24 07:48:15;;;;;;;24.25;10.20;;;;;;;;;;5005351;28;20108;-79
2022/11/24 07:50:41;;;;;;;29.70;11.02;;;;;;;;;;5004482;28;20022;-78
2022/11/24 07:53:06;;;;;;;23.38;10.80;;;;;;;;;;4987564;28;20029;-79
2022/11/24 07:55:31;;;;;;;25.08;10.63;;;;;;;;;;5005492;28;20023;-78
2022/11/24 07:58:00;;;;;;;22.13;9.88;;;;;;;;;;5005569;28;20026;-79
2022/11/24 08:00:26;;;;;;;24.60;10.70;;;;;;;;;;4987463;28;20034;-78
2022/11/24 08:02:51;;;;;;;25.65;10.88;;;;;;;;;;4986673;28;20029;-78
2022/11/24 08:05:17;;;;;;;27.20;11.70;;;;;;;;;;5003953;28;20033;-78
2022/11/24 08:07:42;;;;;;;22.55;9.98;;;;;;;;;;4986158;28;20018;-79
2022/11/24 08:10:08;;;;;;;25.08;10.02;;;;;;;;;;4986146;28;20031;-79
2022/11/24 08:12:33;;;;;;;23.35;10.48;;;;;;;;;;5003288;28;20165;-78
2022/11/24 08:14:58;;;;;;;23.45;10.57;;;;;;;;;;5002578;28;20046;-79
2022/11/24 08:17:24;;;;;;;22.42;10.80;;;;;;;;;;5004954;28;20018;-78
2022/11/24 08:19:49;;;;;;;22.67;10.20;;;;;;;;;;5003713;28;20030;-79
2022/11/24 08:22:15;;;;;;;22.75;9.52;;;;;;;;;;5004020;28;20037;-78
2022/11/24 08:24:45;;;;;;;20.98;9.77;;;;;;;;;;5004498;28;20034;-78
2022/11/24 08:27:11;;;;;;;21.88;10.32;;;;;;;;;;4986986;28;20065;-78
2022/11/24 08:29:36;;;;;;;22.75;10.63;;;;;;;;;;5005127;28;20022;-79
2022/11/24 08:32:01;;;;;;;25.58;10.40;;;;;;;;;;4986120;28;20060;-78
2022/11/24 08:34:27;;;;;;;28.75;11.15;;;;;;;;;;5003386;28;20038;-78
2022/11/24 08:36:52;;;;;;;29.70;10.93;;;;;;;;;;5004032;28;20018;-79
2022/11/24 08:39:17;;;;;;;22.25;9.98;;;;;;;;;;4985215;28;20037;-79
2022/11/24 08:41:43;;;;;;;20.40;9.75;;;;;;;;;;4985772;28;20022;-78
2022/11/24 08:44:09;;;;;;;24.48;9.95;;;;;;;;;;4986788;28;20483;-79
2022/11/24 08:46:35;;;;;;;22.60;9.90;;;;;;;;;;5004172;28;20026;-79
2022/11/24 08:49:00;;;;;;;27.58;11.15;;;;;;;;;;4986508;28;20038;-80
2022/11/24 08:51:26;;;;;;;25.38;10.25;;;;;;;;;;5003825;28;20029;-79
2022/11/24 08:53:57;;;;;;;24.00;10.80;;;;;;;;;;5003771;28;20026;-80
2022/11/24 08:56:23;;;;;;;24.70;10.40;;;;;;;;;;4986839;28;20057;-80
2022/11/24 08:58:48;;;;;;;25.88;9.93;;;;;;;;;;5004606;28;20026;-79
2022/11/24 09:01:15;;;;;;;22.92;10.52;;;;;;;;;;5004460;28;20164;-80
2022/11/24 09:03:42;;;;;;;27.80;10.60;;;;;;;;;;5004898;28;20141;-80
2022/11/24 09:06:08;;;;;;;27.25;10.20;;;;;;;;;;4987530;28;20018;-79
2022/11/24 09:08:34;;;;;;;25.80;10.65;;;;;;;;;;5004894;28;20053;-79
2022/11/24 09:11:01;;;;;;;21.80;9.43;;;;;;;;;;5004763;28;20040;-78
2022/11/24 09:13:29;;;;;;;21.25;9.88;;;;;;;;;;5003446;28;20041;-79
2022/11/24 09:15:55;;;;;;;24.50;10.35;;;;;;;;;;5003035;28;20061;-78
2022/11/24 09:18:20;;;;;;;23.38;10.55;;;;;;;;;;4987449;28;20026;-80
2022/11/24 09:20:46;;;;;;;26.38;10.13;;;;;;;;;;5004037;28;20030;-78
2022/11/24 09:23:11;;;;;;;20.85;9.65;;;;;;;;;;5003802;28;20051;-78
2022/11/24 09:25:37;;;;;;;26.80;11.80;;;;;;;;;;5003578;28;20026;-79
2022/11/24 09:28:02;;;;;;;28.52;10.98;;;;;;;;;;5002152;28;20090;-78
2022/11/24 09:30:27;;;;;;;24.60;10.75;;;;;;;;;;5001521;28;20026;-79
2022/11/24 09:32:55;;;;;;;23.38;9.80;;;;;;;;;;5002851;28;20030;-80
2022/11/24 09:35:20;;;;;;;20.83;10.27;;;;;;;;;;5003968;28;20022;-78
2022/11/24 09:37:47;;;;;;;19.92;10.05;;;;;;;;;;4986187;28;20030;-78
2022/11/24 09:40:14;;;;;;;25.58;9.70;;;;;;;;;;4984567;28;20033;-80
2022/11/24 09:42:58;;;;;;;22.77;10.05;;;;;;;;;;5002369;28;20427;-79
2022/11/24 09:45:50;;;;;;;21.95;10.60;;;;;;;;;;5002077;28;20076;-77
2022/11/24 09:48:32;;;;;;;21.02;9.57;;;;;;;;;;5002798;28;20097;-78
2022/11/24 09:51:02;;;;;;;30.17;11.10;;;;;;;;;;5002774;28;20106;-79
2022/11/24 09:53:34;;;;;;;21.90;10.27;;;;;;;;;;5001574;28;20046;-79
2022/11/24 09:56:21;;;;;;;26.08;10.77;;;;;;;;;;4999813;28;20125;-79
2022/11/24 09:58:51;;;;;;;24.92;10.32;;;;;;;;;;4981575;28;20037;-79
2022/11/24 10:01:32;;;;;;;26.05;10.07;;;;;;;;;;4999582;28;20034;-78
2022/11/24 10:03:57;;;;;;;22.55;10.85;;;;;;;;;;4999455;28;20061;-78
2022/11/24 10:06:26;;;;;;;22.88;9.88;;;;;;;;;;4978098;28;20084;-76
2022/11/24 10:09:21;;;;;;;23.83;10.45;;;;;;;;;;4976065;28;20029;-77
2022/11/24 10:12:16;;;;;;;23.23;10.88;;;;;;;;;;4994607;28;20388;-77
2022/11/24 10:15:03;;;;;;;23.95;10.43;;;;;;;;;;4976065;28;20077;-78
2022/11/24 10:17:46;;;;;;;19.38;10.07;;;;;;;;;;4993771;28;20472;-77
2022/11/24 10:20:41;;;;;;;25.38;10.40;;;;;;;;;;4976484;28;20030;-76
2022/11/24 10:23:21;;;;;;;22.30;10.35;;;;;;;;;;4977740;28;20026;-78
2022/11/24 10:25:58;;;;;;;25.13;9.88;;;;;;;;;;4995640;28;20022;-79
2022/11/24 10:28:33;;;;;;;23.27;10.45;;;;;;;;;;4995030;28;20033;-78
2022/11/24 10:31:17;;;;;;;20.08;10.23;;;;;;;;;;4994133;28;20550;-77
2022/11/24 10:33:43;;;;;;;25.88;10.75;;;;;;;;;;4977465;28;20034;-77
2022/11/24 10:36:19;;;;;;;30.10;12.15;;;;;;;;;;4993785;28;20490;-77
2022/11/24 10:38:52;;;;;;;25.95;10.95;;;;;;;;;;4994206;28;20038;-78
2022/11/24 10:41:38;;;;;;;19.58;10.02;;;;;;;;;;4994652;28;20053;-77
2022/11/24 10:44:03;;;;;;;22.23;10.10;;;;;;;;;;4993141;28;20105;-77
2022/11/24 10:46:29;;;;;;;25.67;9.82;;;;;;;;;;4993695;28;20109;-77
2022/11/24 10:49:00;;;;;;;22.02;10.02;;;;;;;;;;4978776;28;20026;-78
2022/11/24 10:51:29;;;;;;;21.00;9.15;;;;;;;;;;4994196;28;20029;-78
2022/11/24 10:54:00;;;;;;;18.27;9.43;;;;;;;;;;4976995;28;20296;-77
2022/11/24 10:56:25;;;;;;;27.20;10.45;;;;;;;;;;4994855;28;20468;-79
2022/11/24 10:58:50;;;;;;;20.70;10.00;;;;;;;;;;4993307;28;20030;-77
2022/11/24 11:01:16;;;;;;;21.02;8.77;;;;;;;;;;4993804;28;20066;-77
2022/11/24 11:03:53;;;;;;;19.60;9.40;;;;;;;;;;4997615;28;20026;-77
2022/11/24 11:06:30;;;;;;;21.17;9.45;;;;;;;;;;4998351;28;20097;-78
2022/11/24 11:09:04;;;;;;;26.20;9.63;;;;;;;;;;4997989;28;20057;-79
2022/11/24 11:11:30;;;;;;;17.27;8.95;;;;;;;;;;4997810;28;20026;-77
2022/11/24 11:14:00;;;;;;;20.20;10.10;;;;;;;;;;4997153;28;20018;-77
2022/11/24 11:16:39;;;;;;;20.27;11.40;;;;;;;;;;4979055;28;20034;-76
2022/11/24 11:19:51;;;;;;;20.77;10.30;;;;;;;;;;4998854;28;20113;-79
2022/11/24 11:22:37;;;;;;;26.52;10.82;;;;;;;;;;5000538;28;20569;-78
2022/11/24 11:25:04;;;;;;;26.23;10.80;;;;;;;;;;5002617;28;20034;-79
2022/11/24 11:27:30;;;;;;;24.63;10.40;;;;;;;;;;5004341;28;20026;-78
2022/11/24 11:30:17;;;;;;;26.25;10.50;;;;;;;;;;4998691;28;20083;-77
2022/11/24 11:32:53;;;;;;;22.20;9.93;;;;;;;;;;4996205;28;20034;-76
2022/11/24 11:35:18;;;;;;;22.25;10.23;;;;;;;;;;4996230;28;20022;-75
2022/11/24 11:37:44;;;;;;;25.67;10.77;;;;;;;;;;4995742;28;20030;-75
2022/11/24 11:40:16;;;;;;;21.92;10.05;;;;;;;;;;4996231;28;20041;-77
2022/11/24 11:43:06;;;;;;;22.50;10.07;;;;;;;;;;4995871;28;20113;-76
2022/11/24 11:45:36;;;;;;;23.23;10.63;;;;;;;;;;4982253;28;20462;-78
2022/11/24 11:48:02;;;;;;;25.23;10.95;;;;;;;;;;4996012;28;20121;-77
2022/11/24 11:50:48;;;;;;;25.92;10.88;;;;;;;;;;4996560;28;20062;-79
2022/11/24 11:53:43;;;;;;;20.13;10.10;;;;;;;;;;5000141;28;20026;-77
2022/11/24 11:56:24;;;;;;;22.63;10.38;;;;;;;;;;5000684;28;20022;-84
2022/11/24 11:59:03;;;;;;;22.77;10.82;;;;;;;;;;5004640;28;20507;-80
2022/11/24 12:01:41;;;;;;;19.02;10.38;;;;;;;;;;4987438;28;20052;-76
2022/11/24 12:04:12;;;;;;;23.50;10.63;;;;;;;;;;4987011;28;20426;-79
2022/11/24 12:06:58;;;;;;;23.20;10.45;;;;;;;;;;4988048;28;20040;-79
2022/11/24 12:09:51;;;;;;;21.73;10.60;;;;;;;;;;4987637;28;20114;-78
2022/11/24 12:12:32;;;;;;;20.90;10.15;;;;;;;;;;5004388;28;20027;-80
2022/11/24 12:15:19;;;;;;;18.65;10.05;;;;;;;;;;5006150;28;20113;-79
2022/11/24 12:18:06;;;;;;;24.90;10.23;;;;;;;;;;5004533;28;20041;-80
2022/11/24 12:20:57;;;;;;;21.75;10.23;;;;;;;;;;5004841;28;20038;-80
2022/11/24 12:23:44;;;;;;;21.48;10.30;;;;;;;;;;4987000;28;20113;-79
2022/11/24 12:26:24;;;;;;;21.33;9.77;;;;;;;;;;5003878;28;20026;-79
2022/11/24 12:29:00;;;;;;;23.77;10.52;;;;;;;;;;5003865;28;20567;-79
2022/11/24 12:31:40;;;;;;;23.92;10.32;;;;;;;;;;5004325;28;20089;-79
2022/11/24 12:34:22;;;;;;;22.27;10.02;;;;;;;;;;4986599;28;20065;-78
2022/11/24 12:37:07;;;;;;;21.80;10.48;;;;;;;;;;4986118;28;20018;-80
2022/11/24 12:39:54;;;;;;;19.52;9.52;;;;;;;;;;5004348;28;20030;-79
2022/11/24 12:42:41;;;;;;;24.00;10.30;;;;;;;;;;5005114;28;20082;-79
2022/11/24 12:45:13;;;;;;;24.17;10.60;;;;;;;;;;5005090;28;20415;-79
2022/11/24 12:47:50;;;;;;;26.48;10.18;;;;;;;;;;5004387;28;20141;-79
2022/11/24 12:50:25;;;;;;;23.85;10.65;;;;;;;;;;4987767;28;20030;-79
2022/11/24 12:52:59;;;;;;;22.98;10.98;;;;;;;;;;5004212;28;20030;-79
2022/11/24 12:55:26;;;;;;;20.02;10.43;;;;;;;;;;4986878;28;20033;-79
2022/11/24 12:58:14;;;;;;;24.83;11.50;;;;;;;;;;5004984;28;20041;-79
2022/11/24 13:00:50;;;;;;;22.17;11.13;;;;;;;;;;5004456;28;20397;-79
2022/11/24 13:03:31;;;;;;;26.33;10.20;;;;;;;;;;5003933;28;20427;-78
2022/11/24 13:06:36;;;;;;;24.33;10.65;;;;;;;;;;5004082;28;20479;-79
2022/11/24 13:09:09;;;;;;;21.92;10.27;;;;;;;;;;4980701;28;20090;-79
2022/11/24 13:11:37;;;;;;;21.50;9.75;;;;;;;;;;4986567;28;20062;-79
2022/11/24 13:14:17;;;;;;;22.05;10.75;;;;;;;;;;5003591;28;20038;-80
2022/11/24 13:17:07;;;;;;;19.88;10.55;;;;;;;;;;5002224;28;20027;-79
2022/11/24 13:19:35;;;;;;;20.13;9.50;;;;;;;;;;5003349;28;20100;-79
2022/11/24 13:22:14;;;;;;;20.85;9.63;;;;;;;;;;5002879;28;20051;-79
2022/11/24 13:24:40;;;;;;;19.85;9.60;;;;;;;;;;5002652;28;20053;-78
2022/11/24 13:27:14;;;;;;;22.33;10.15;;;;;;;;;;5003358;28;20027;-79
2022/11/24 13:29:40;;;;;;;27.05;10.32;;;;;;;;;;5003138;28;20041;-79
2022/11/24 13:32:05;;;;;;;21.92;10.05;;;;;;;;;;5003069;28;20037;-77
2022/11/24 13:34:39;;;;;;;20.10;10.00;;;;;;;;;;5004308;28;20022;-78
2022/11/24 13:37:17;;;;;;;20.70;9.63;;;;;;;;;;4985923;28;20263;-78
2022/11/24 13:39:51;;;;;;;21.67;10.45;;;;;;;;;;5003225;28;20380;-80
2022/11/24 13:42:18;;;;;;;17.73;10.02;;;;;;;;;;5003879;28;20113;-79
2022/11/24 13:44:50;;;;;;;20.75;10.60;;;;;;;;;;5002830;28;20034;-80
2022/11/24 13:47:42;;;;;;;21.95;10.13;;;;;;;;;;4986945;28;20030;-79
2022/11/24 13:50:21;;;;;;;19.38;9.50;;;;;;;;;;5003714;28;20026;-80
2022/11/24 13:53:00;;;;;;;23.08;9.80;;;;;;;;;;5003930;28;20069;-79
2022/11/24 13:55:32;;;;;;;21.83;9.55;;;;;;;;;;4986900;28;20029;-79
2022/11/24 13:58:03;;;;;;;23.70;9.25;;;;;;;;;;5003666;28;20018;-80
2022/11/24 14:00:31;;;;;;;21.48;10.20;;;;;;;;;;5004278;28;20026;-80
2022/11/24 14:03:00;;;;;;;19.30;8.98;;;;;;;;;;4986560;28;20050;-79
2022/11/24 14:05:35;;;;;;;18.60;8.80;;;;;;;;;;4971958;28;20060;-79
2022/11/24 14:08:01;;;;;;;22.15;10.65;;;;;;;;;;5004357;28;20026;-78
2022/11/24 14:10:32;;;;;;;25.85;9.60;;;;;;;;;;5003927;28;20037;-78
2022/11/24 14:13:20;;;;;;;22.13;10.23;;;;;;;;;;5003522;28;20061;-79
2022/11/24 14:16:00;;;;;;;19.35;9.15;;;;;;;;;;4985836;28;20029;-79
2022/11/24 14:18:27;;;;;;;22.98;10.27;;;;;;;;;;5003910;28;20033;-79
2022/11/24 14:20:54;;;;;;;25.17;10.63;;;;;;;;;;4985507;28;20095;-79
2022/11/24 14:23:19;;;;;;;24.67;10.90;;;;;;;;;;5002058;28;20026;-78
2022/11/24 14:25:48;;;;;;;22.02;9.40;;;;;;;;;;5002950;28;21874;-78
2022/11/24 14:28:27;;;;;;;21.13;10.40;;;;;;;;;;5002720;28;20027;-78
2022/11/24 14:31:07;;;;;;;21.80;10.05;;;;;;;;;;5002937;28;20053;-79
2022/11/24 14:33:33;;;;;;;20.85;11.10;;;;;;;;;;5002521;28;20030;-79
2022/11/24 14:35:58;;;;;;;21.42;11.55;;;;;;;;;;5004658;28;20029;-79
2022/11/24 14:38:23;;;;;;;26.67;11.35;;;;;;;;;;4990142;28;20038;-80